createdAt,value
2022-11-16T00:01:31.021Z,9.39
2022-11-16T00:04:00.933Z,9.34
2022-11-16T00:06:35.646Z,9.17
2022-11-16T00:09:26.767Z,9.29
2022-11-16T00:11:56.677Z,9.34
2022-11-16T00:14:27.617Z,9.29
2022-11-16T00:16:56.091Z,9.44
2022-11-16T00:19:24.688Z,9.27
2022-11-16T00:21:56.620Z,9.30
2022-11-16T00:24:26.823Z,9.41
2022-11-16T00:26:56.183Z,9.44
2022-11-16T00:29:26.480Z,9.38
2022-11-16T00:31:57.660Z,9.46
2022-11-16T00:34:26.484Z,9.36
2022-11-16T00:36:56.853Z,9.47
2022-11-16T00:39:26.353Z,9.33
2022-11-16T00:41:55.633Z,9.34
2022-11-16T00:44:23.884Z,9.30
2022-11-16T00:46:52.066Z,9.20
2022-11-16T00:49:20.091Z,9.19
2022-11-16T00:51:50.600Z,9.30
2022-11-16T00:54:18.816Z,9.22
2022-11-16T00:56:51.767Z,9.30
2022-11-16T00:59:19.987Z,9.17
2022-11-16T01:01:55.886Z,9.12
2022-11-16T01:04:23.992Z,9.26
2022-11-16T01:06:55.978Z,9.15
2022-11-16T01:09:26.172Z,9.29
2022-11-16T01:12:10.113Z,9.15
2022-11-16T01:14:40.071Z,9.12
2022-11-16T01:17:09.133Z,9.18
2022-11-16T01:19:40.501Z,9.20
2022-11-16T01:22:09.624Z,9.29
2022-11-16T01:24:39.926Z,9.45
2022-11-16T01:27:12.212Z,9.26
2022-11-16T01:29:43.957Z,9.19
2022-11-16T01:32:14.869Z,9.33
2022-11-16T01:34:45.829Z,9.24
2022-11-16T01:37:26.900Z,9.25
2022-11-16T01:39:57.752Z,9.15
2022-11-16T01:42:29.257Z,9.28
2022-11-16T01:45:07.546Z,9.28
2022-11-16T01:47:36.574Z,9.41
2022-11-16T01:50:10.729Z,9.41
2022-11-16T01:52:45.839Z,9.32
2022-11-16T01:55:15.000Z,9.38
2022-11-16T01:58:07.633Z,9.47
2022-11-16T02:00:39.034Z,9.37
2022-11-16T02:03:26.253Z,9.27
2022-11-16T02:06:10.911Z,9.29
2022-11-16T02:09:15.381Z,9.17
2022-11-16T02:12:10.536Z,9.22
2022-11-16T02:14:53.544Z,9.26
2022-11-16T02:17:33.604Z,9.19
2022-11-16T02:20:35.182Z,9.09
2022-11-16T02:23:22.262Z,9.09
2022-11-16T02:25:57.843Z,9.12
2022-11-16T02:28:35.253Z,9.18
2022-11-16T02:31:08.684Z,9.29
2022-11-16T02:33:39.817Z,9.16
2022-11-16T02:36:15.313Z,9.31
2022-11-16T02:38:47.645Z,9.38
2022-11-16T02:41:18.961Z,9.26
2022-11-16T02:43:53.203Z,9.18
2022-11-16T02:46:30.435Z,9.32
2022-11-16T02:49:00.951Z,9.31
2022-11-16T02:51:30.355Z,9.19
2022-11-16T02:54:04.532Z,9.32
2022-11-16T02:56:43.604Z,9.22
2022-11-16T02:59:17.427Z,9.08
2022-11-16T03:01:55.726Z,9.17
2022-11-16T03:04:30.711Z,9.18
2022-11-16T03:07:02.193Z,9.11
2022-11-16T03:09:32.375Z,9.10
2022-11-16T03:12:01.286Z,9.08
2022-11-16T03:14:37.152Z,9.20
2022-11-16T03:17:11.664Z,9.00
2022-11-16T03:19:45.329Z,9.14
2022-11-16T03:22:16.579Z,9.01
2022-11-16T03:24:45.297Z,9.06
2022-11-16T03:27:23.224Z,9.04
2022-11-16T03:30:00.405Z,9.18
2022-11-16T03:32:44.617Z,9.07
2022-11-16T03:35:17.481Z,9.11
2022-11-16T03:37:49.346Z,9.19
2022-11-16T03:40:18.946Z,9.16
2022-11-16T03:42:50.628Z,9.12
2022-11-16T03:45:20.436Z,9.20
2022-11-16T03:47:54.099Z,9.20
2022-11-16T03:50:24.188Z,9.17
2022-11-16T03:52:54.403Z,9.16
2022-11-16T03:55:23.772Z,9.08
2022-11-16T03:57:53.912Z,9.04
2022-11-16T04:00:22.280Z,8.90
2022-11-16T04:02:55.135Z,9.00
2022-11-16T04:05:42.580Z,9.10
2022-11-16T04:08:33.449Z,8.86
2022-11-16T04:11:20.221Z,8.99
2022-11-16T04:14:09.358Z,9.12
2022-11-16T04:17:00.173Z,9.06
2022-11-16T04:19:47.124Z,9.02
2022-11-16T04:22:37.125Z,9.02
2022-11-16T04:25:09.872Z,9.00
2022-11-16T04:27:56.655Z,8.98
2022-11-16T04:30:25.784Z,8.96
2022-11-16T04:33:11.553Z,8.90
2022-11-16T04:36:00.144Z,8.93
2022-11-16T04:38:30.672Z,8.87
2022-11-16T04:41:01.183Z,8.90
2022-11-16T04:43:29.478Z,9.01
2022-11-16T04:46:14.927Z,8.95
2022-11-16T04:48:45.120Z,8.96
2022-11-16T04:51:14.602Z,8.92
2022-11-16T04:53:42.848Z,9.01
2022-11-16T04:56:21.132Z,9.05
2022-11-16T04:58:49.143Z,9.03
2022-11-16T05:01:56.180Z,8.93
2022-11-16T05:04:25.568Z,8.94
2022-11-16T05:07:10.908Z,8.93
2022-11-16T05:09:46.521Z,8.94
2022-11-16T05:12:18.179Z,9.01
2022-11-16T05:14:49.749Z,8.94
2022-11-16T05:17:19.892Z,8.97
2022-11-16T05:20:08.321Z,8.84
2022-11-16T05:22:54.024Z,8.87
2022-11-16T05:25:24.759Z,8.92
2022-11-16T05:27:54.083Z,8.90
2022-11-16T05:30:22.253Z,8.97
2022-11-16T05:32:53.243Z,9.09
2022-11-16T05:35:23.780Z,9.02
2022-11-16T05:37:54.446Z,9.05
2022-11-16T05:40:23.046Z,8.95
2022-11-16T05:43:01.198Z,9.03
2022-11-16T05:45:34.287Z,8.86
2022-11-16T05:48:02.975Z,8.87
2022-11-16T05:50:32.704Z,9.02
2022-11-16T05:53:33.711Z,8.92
2022-11-16T05:56:03.563Z,8.98
2022-11-16T05:58:35.303Z,9.09
2022-11-16T06:01:04.023Z,8.96
2022-11-16T06:03:33.101Z,9.02
2022-11-16T06:06:01.883Z,9.04
2022-11-16T06:08:38.969Z,8.90
2022-11-16T06:11:12.431Z,8.97
2022-11-16T06:13:41.050Z,8.97
2022-11-16T06:16:10.480Z,8.95
2022-11-16T06:18:40.597Z,9.01
2022-11-16T06:21:10.794Z,8.86
2022-11-16T06:23:40.383Z,9.04
2022-11-16T06:26:09.491Z,8.98
2022-11-16T06:28:40.281Z,8.98
2022-11-16T06:31:09.190Z,8.86
2022-11-16T06:33:43.285Z,8.86
2022-11-16T06:36:18.929Z,9.00
2022-11-16T06:38:53.549Z,8.85
2022-11-16T06:41:23.551Z,8.94
2022-11-16T06:43:56.822Z,8.96
2022-11-16T06:46:32.314Z,9.16
2022-11-16T06:49:00.577Z,8.97
2022-11-16T06:51:28.725Z,9.15
2022-11-16T06:53:58.125Z,9.12
2022-11-16T06:56:28.837Z,9.08
2022-11-16T06:58:58.933Z,9.18
2022-11-16T07:01:31.805Z,9.11
2022-11-16T07:04:05.510Z,9.12
2022-11-16T07:06:34.909Z,9.10
2022-11-16T07:09:08.638Z,9.14
2022-11-16T07:11:37.384Z,9.03
2022-11-16T07:14:05.538Z,9.11
2022-11-16T07:16:35.653Z,9.17
2022-11-16T07:19:04.795Z,9.12
2022-11-16T07:21:36.060Z,9.27
2022-11-16T07:24:09.434Z,9.15
2022-11-16T07:26:41.600Z,9.18
2022-11-16T07:29:15.712Z,9.13
2022-11-16T07:32:02.833Z,9.16
2022-11-16T07:34:55.792Z,9.17
2022-11-16T07:37:26.626Z,9.08
2022-11-16T07:40:03.551Z,8.97
2022-11-16T07:42:36.506Z,8.97
2022-11-16T07:45:22.268Z,9.09
2022-11-16T07:47:59.752Z,9.11
2022-11-16T07:50:55.448Z,9.21
2022-11-16T07:53:26.283Z,9.04
2022-11-16T07:56:12.248Z,9.10
2022-11-16T07:58:44.321Z,9.22
2022-11-16T08:01:18.265Z,9.27
2022-11-16T08:04:01.007Z,9.17
2022-11-16T08:06:34.467Z,9.14
2022-11-16T08:09:05.481Z,9.23
2022-11-16T08:11:49.167Z,9.06
2022-11-16T08:14:20.339Z,9.19
2022-11-16T08:16:59.106Z,9.00
2022-11-16T08:19:27.730Z,9.08
2022-11-16T08:21:57.823Z,9.25
2022-11-16T08:24:33.429Z,9.20
2022-11-16T08:27:19.851Z,9.19
2022-11-16T08:30:04.292Z,9.20
2022-11-16T08:32:41.290Z,9.13
2022-11-16T08:35:13.000Z,9.16
2022-11-16T08:37:45.412Z,9.21
2022-11-16T08:40:16.594Z,9.07
2022-11-16T08:43:00.635Z,9.19
2022-11-16T08:45:31.770Z,9.07
2022-11-16T08:48:11.968Z,9.14
2022-11-16T08:51:02.296Z,9.17
2022-11-16T08:53:32.780Z,9.17
2022-11-16T08:56:09.593Z,9.22
2022-11-16T08:59:06.978Z,9.10
2022-11-16T09:01:40.756Z,9.22
2022-11-16T09:04:19.664Z,9.28
2022-11-16T09:06:53.545Z,9.09
2022-11-16T09:09:23.604Z,9.28
2022-11-16T09:11:55.690Z,9.15
2022-11-16T09:14:35.238Z,9.20
2022-11-16T09:17:05.737Z,9.16
2022-11-16T09:19:34.202Z,9.20
2022-11-16T09:22:06.133Z,9.28
2022-11-16T09:24:38.975Z,9.37
2022-11-16T09:27:16.901Z,9.24
2022-11-16T09:29:47.525Z,9.20
2022-11-16T09:32:17.881Z,9.32
2022-11-16T09:34:50.126Z,9.37
2022-11-16T09:37:21.171Z,9.21
2022-11-16T09:39:50.986Z,9.26
2022-11-16T09:42:35.240Z,9.15
2022-11-16T09:45:23.773Z,9.22
2022-11-16T09:48:09.029Z,9.34
2022-11-16T09:50:55.942Z,9.31
2022-11-16T09:53:40.472Z,9.40
2022-11-16T09:56:20.751Z,9.27
2022-11-16T09:59:00.280Z,9.24
2022-11-16T10:01:41.816Z,9.23
2022-11-16T10:04:14.205Z,9.29
2022-11-16T10:06:58.965Z,9.17
2022-11-16T10:09:30.332Z,9.27
2022-11-16T10:12:18.244Z,9.30
2022-11-16T10:15:13.895Z,9.27
2022-11-16T10:21:27.199Z,9.25
2022-11-16T10:24:13.534Z,9.27
2022-11-16T10:26:59.630Z,9.32
2022-11-16T10:29:45.396Z,9.18
2022-11-16T10:32:25.024Z,9.31
2022-11-16T10:35:04.076Z,9.27
2022-11-16T10:37:39.485Z,9.40
2022-11-16T10:40:33.608Z,9.31
2022-11-16T10:43:06.281Z,9.22
2022-11-16T10:45:41.009Z,9.34
2022-11-16T10:48:23.489Z,9.35
2022-11-16T10:51:04.632Z,9.35
2022-11-16T10:53:44.581Z,9.49
2022-11-16T10:56:27.710Z,9.49
2022-11-16T10:59:08.182Z,9.47
2022-11-16T11:01:41.993Z,9.42
2022-11-16T11:04:16.943Z,9.36
2022-11-16T11:06:55.135Z,9.26
2022-11-16T11:09:28.630Z,9.36
2022-11-16T11:12:24.183Z,9.40
2022-11-16T11:15:08.709Z,9.43
2022-11-16T11:17:38.669Z,9.37
2022-11-16T11:20:23.086Z,9.42
2022-11-16T11:23:16.871Z,9.45
2022-11-16T11:25:53.360Z,9.40
2022-11-16T11:28:37.835Z,9.44
2022-11-16T11:31:17.407Z,9.38
2022-11-16T11:33:52.134Z,9.56
2022-11-16T11:36:22.955Z,9.41
2022-11-16T11:39:13.461Z,9.57
2022-11-16T11:41:51.778Z,9.50
2022-11-16T11:44:24.766Z,9.48
2022-11-16T11:47:42.366Z,9.37
2022-11-16T11:50:08.124Z,9.47
2022-11-16T11:52:44.473Z,9.46
2022-11-16T11:55:42.800Z,9.50
2022-11-16T11:58:19.583Z,9.43
2022-11-16T12:01:10.172Z,9.68
2022-11-16T12:04:16.966Z,9.36
2022-11-16T12:06:53.806Z,9.47
2022-11-16T12:09:40.092Z,9.50
2022-11-16T12:12:29.733Z,9.44
2022-11-16T12:15:26.170Z,9.49
2022-11-16T12:17:59.618Z,9.60
2022-11-16T12:20:37.905Z,9.60
2022-11-16T12:23:40.252Z,9.35
2022-11-16T12:26:19.222Z,9.48
2022-11-16T12:29:13.255Z,9.45
2022-11-16T12:32:16.754Z,9.55
2022-11-16T12:35:00.434Z,9.46
2022-11-16T12:37:39.161Z,9.51
2022-11-16T12:40:23.920Z,9.52
2022-11-16T12:43:14.745Z,9.52
2022-11-16T12:46:19.515Z,9.45
2022-11-16T12:49:34.512Z,9.39
2022-11-16T12:53:01.082Z,9.47
2022-11-16T12:55:35.115Z,9.45
2022-11-16T12:58:15.279Z,9.49
2022-11-16T13:01:03.344Z,9.35
2022-11-16T13:03:38.040Z,9.27
2022-11-16T13:06:13.732Z,9.35
2022-11-16T13:09:00.059Z,9.19
2022-11-16T13:11:41.735Z,9.13
2022-11-16T13:14:26.123Z,8.98
2022-11-16T13:16:59.194Z,9.25
2022-11-16T13:19:31.463Z,9.23
2022-11-16T13:22:14.915Z,9.27
2022-11-16T13:24:55.907Z,9.16
2022-11-16T13:27:39.977Z,9.35
2022-11-16T13:30:18.943Z,9.30
2022-11-16T13:33:30.286Z,9.33
2022-11-16T13:36:02.533Z,9.50
2022-11-16T13:38:59.607Z,9.39
2022-11-16T13:41:32.387Z,9.52
2022-11-16T13:44:01.663Z,9.37
2022-11-16T13:46:55.870Z,9.36
2022-11-16T13:49:30.632Z,9.45
2022-11-16T13:52:17.339Z,9.49
2022-11-16T13:55:02.266Z,9.37
2022-11-16T13:57:36.348Z,9.29
2022-11-16T14:00:15.578Z,9.43
2022-11-16T14:05:51.367Z,9.54
2022-11-16T14:08:54.948Z,9.57
2022-11-16T14:11:36.022Z,9.57
2022-11-16T14:14:09.420Z,9.62
2022-11-16T14:16:58.222Z,9.83
2022-11-16T14:19:58.817Z,9.59
2022-11-16T14:22:48.098Z,9.60
2022-11-16T14:25:31.528Z,9.66
2022-11-16T14:28:35.682Z,9.52
2022-11-16T14:31:19.352Z,9.43
2022-11-16T14:34:00.586Z,9.60
2022-11-16T14:36:49.489Z,9.63
2022-11-16T14:39:41.101Z,9.53
2022-11-16T14:42:22.235Z,9.53
2022-11-16T14:45:00.631Z,9.55
2022-11-16T14:47:46.068Z,9.63
2022-11-16T14:50:26.471Z,9.80
2022-11-16T14:52:58.516Z,9.62
2022-11-16T14:55:35.945Z,9.52
2022-11-16T14:58:14.221Z,9.76
2022-11-16T15:00:53.846Z,9.33
2022-11-16T15:03:24.501Z,9.54
2022-11-16T15:08:58.990Z,9.60
2022-11-16T15:11:56.246Z,9.57
2022-11-16T15:14:28.579Z,9.86
2022-11-16T15:17:10.440Z,9.47
2022-11-16T15:19:41.874Z,9.52
2022-11-16T15:22:21.774Z,9.49
2022-11-16T15:25:24.258Z,9.51
2022-11-16T15:27:57.746Z,9.69
2022-11-16T15:30:34.152Z,9.57
2022-11-16T15:33:08.040Z,9.54
2022-11-16T15:35:39.781Z,9.63
2022-11-16T15:38:18.712Z,9.55
2022-11-16T15:40:50.973Z,9.52
2022-11-16T15:43:21.789Z,9.79
2022-11-16T15:45:55.215Z,9.32
2022-11-16T15:48:44.206Z,9.43
2022-11-16T15:51:20.158Z,9.37
2022-11-16T15:53:56.954Z,9.38
2022-11-16T15:56:36.527Z,9.37
2022-11-16T15:59:24.246Z,9.41
2022-11-16T16:01:53.988Z,9.34
2022-11-16T16:04:35.200Z,9.36
2022-11-16T16:07:03.414Z,9.45
2022-11-16T16:09:42.099Z,9.53
2022-11-16T16:12:19.014Z,9.28
2022-11-16T16:14:50.299Z,9.37
2022-11-16T16:17:27.120Z,9.17
2022-11-16T16:20:17.194Z,9.16
2022-11-16T16:22:46.458Z,9.43
2022-11-16T16:25:29.470Z,9.26
2022-11-16T16:27:59.356Z,9.29
2022-11-16T16:30:29.711Z,9.28
2022-11-16T16:33:02.312Z,9.52
2022-11-16T16:35:37.358Z,9.22
2022-11-16T16:38:18.732Z,9.19
2022-11-16T16:40:53.696Z,9.18
2022-11-16T16:43:25.084Z,9.11
2022-11-16T16:46:02.859Z,9.17
2022-11-16T16:48:31.246Z,9.35
2022-11-16T16:51:07.319Z,9.35
2022-11-16T16:53:35.947Z,9.32
2022-11-16T16:56:06.730Z,9.39
2022-11-16T16:58:35.758Z,9.40
2022-11-16T17:01:06.282Z,9.26
2022-11-16T17:03:35.066Z,9.35
2022-11-16T17:06:06.027Z,9.33
2022-11-16T17:08:44.959Z,9.32
2022-11-16T17:11:18.407Z,9.55
2022-11-16T17:13:47.833Z,9.39
2022-11-16T17:16:18.287Z,9.18
2022-11-16T17:18:55.141Z,9.19
2022-11-16T17:21:33.589Z,9.21
2022-11-16T17:24:07.219Z,9.22
2022-11-16T17:26:37.441Z,9.37
2022-11-16T17:29:07.177Z,9.21
2022-11-16T17:31:37.309Z,9.22
2022-11-16T17:34:10.733Z,9.20
2022-11-16T17:36:45.587Z,9.21
2022-11-16T17:39:21.337Z,9.33
2022-11-16T17:41:57.163Z,9.45
2022-11-16T17:44:27.290Z,9.39
2022-11-16T17:47:02.173Z,9.57
2022-11-16T17:49:31.483Z,9.35
2022-11-16T17:52:01.918Z,9.46
2022-11-16T17:54:34.909Z,9.44
2022-11-16T17:57:06.094Z,9.46
2022-11-16T17:59:37.026Z,9.36
2022-11-16T18:02:07.650Z,9.33
2022-11-16T18:04:38.323Z,9.65
2022-11-16T18:07:09.390Z,9.39
2022-11-16T18:09:43.057Z,9.35
2022-11-16T18:12:15.368Z,9.51
2022-11-16T18:14:59.955Z,9.46
2022-11-16T18:17:36.775Z,9.42
2022-11-16T18:20:08.854Z,9.42
2022-11-16T18:22:40.539Z,9.27
2022-11-16T18:25:18.160Z,9.12
2022-11-16T18:28:05.705Z,9.26
2022-11-16T18:30:39.835Z,9.42
2022-11-16T18:33:09.963Z,9.22
2022-11-16T18:35:46.171Z,9.31
2022-11-16T18:38:15.973Z,9.46
2022-11-16T18:40:49.975Z,9.42
2022-11-16T18:43:20.572Z,9.48
2022-11-16T18:45:58.725Z,9.42
2022-11-16T18:48:28.131Z,9.33
2022-11-16T18:51:00.914Z,9.42
2022-11-16T18:53:35.229Z,9.34
2022-11-16T18:56:07.876Z,9.40
2022-11-16T18:58:54.084Z,9.14
2022-11-16T19:01:30.045Z,9.42
2022-11-16T19:04:04.967Z,9.31
2022-11-16T19:06:37.536Z,9.23
2022-11-16T19:09:09.772Z,9.15
2022-11-16T19:11:42.265Z,9.30
2022-11-16T19:14:15.094Z,9.23
2022-11-16T19:16:52.535Z,9.40
2022-11-16T19:19:30.089Z,9.30
2022-11-16T19:22:00.411Z,9.29
2022-11-16T19:24:40.422Z,9.32
2022-11-16T19:27:11.574Z,9.34
2022-11-16T19:29:42.706Z,9.39
2022-11-16T19:32:15.723Z,9.28
2022-11-16T19:34:47.272Z,9.22
2022-11-16T19:37:17.014Z,9.10
2022-11-16T19:39:48.234Z,9.38
2022-11-16T19:42:23.717Z,9.40
2022-11-16T19:45:00.799Z,9.42
2022-11-16T19:47:32.188Z,9.38
2022-11-16T19:50:02.069Z,9.40
2022-11-16T19:52:32.148Z,9.31
2022-11-16T19:55:01.228Z,9.34
2022-11-16T19:57:34.593Z,9.23
2022-11-16T20:00:05.712Z,9.21
2022-11-16T20:02:37.947Z,9.46
2022-11-16T20:05:09.714Z,9.37
2022-11-16T20:07:40.236Z,9.41
2022-11-16T20:10:11.532Z,9.14
2022-11-16T20:12:44.984Z,9.29
2022-11-16T20:15:15.027Z,9.39
2022-11-16T20:17:44.861Z,9.40
2022-11-16T20:20:24.352Z,9.47
2022-11-16T20:22:59.200Z,9.33
2022-11-16T20:25:33.595Z,9.34
2022-11-16T20:28:06.043Z,9.45
2022-11-16T20:30:36.487Z,9.32
2022-11-16T20:33:06.093Z,9.34
2022-11-16T20:35:36.665Z,9.62
2022-11-16T20:38:06.074Z,9.48
2022-11-16T20:40:36.724Z,9.36
2022-11-16T20:43:09.557Z,9.45
2022-11-16T20:45:40.054Z,9.55
2022-11-16T20:48:12.201Z,9.39
2022-11-16T20:50:45.282Z,9.36
2022-11-16T20:53:17.413Z,9.54
2022-11-16T20:55:48.076Z,9.42
2022-11-16T20:58:23.047Z,9.41
2022-11-16T21:01:03.656Z,9.37
2022-11-16T21:03:33.000Z,9.35
2022-11-16T21:06:02.664Z,9.36
2022-11-16T21:08:33.661Z,9.26
2022-11-16T21:11:02.231Z,9.35
2022-11-16T21:13:49.392Z,9.29
2022-11-16T21:16:18.631Z,9.42
2022-11-16T21:18:46.862Z,9.33
2022-11-16T21:21:15.684Z,9.11
2022-11-16T21:23:52.997Z,9.22
2022-11-16T21:26:24.188Z,9.23
2022-11-16T21:28:56.462Z,9.32
2022-11-16T21:31:26.883Z,9.21
2022-11-16T21:34:01.183Z,9.11
2022-11-16T21:36:30.848Z,9.23
2022-11-16T21:38:59.424Z,9.29
2022-11-16T21:41:30.728Z,9.35
2022-11-16T21:44:06.503Z,9.16
2022-11-16T21:46:42.931Z,9.31
2022-11-16T21:49:14.003Z,9.33
2022-11-16T21:51:42.673Z,9.21
2022-11-16T21:54:19.349Z,9.34
2022-11-16T21:56:49.011Z,9.32
2022-11-16T21:59:23.273Z,9.34
2022-11-16T22:02:05.793Z,9.18
2022-11-16T22:04:52.676Z,9.28
2022-11-16T22:07:38.841Z,9.36
2022-11-16T22:10:08.676Z,9.22
2022-11-16T22:12:39.782Z,9.38
2022-11-16T22:15:12.815Z,9.24
2022-11-16T22:17:44.713Z,9.11
2022-11-16T22:20:14.549Z,9.38
2022-11-16T22:22:43.752Z,9.46
2022-11-16T22:25:16.791Z,9.23
2022-11-16T22:28:18.602Z,9.27
2022-11-16T22:30:38.761Z,9.47
2022-11-16T22:33:12.740Z,9.40
2022-11-16T22:35:41.460Z,9.33
2022-11-16T22:38:11.021Z,9.37
2022-11-16T22:40:41.994Z,9.59
2022-11-16T22:43:15.034Z,9.38
2022-11-16T22:45:44.824Z,9.39
2022-11-16T22:48:15.223Z,9.29
2022-11-16T22:50:46.184Z,9.29
2022-11-16T22:53:14.232Z,9.26
2022-11-16T22:55:44.479Z,9.51
2022-11-16T22:58:15.704Z,9.38
2022-11-16T23:00:48.615Z,9.34
2022-11-16T23:03:18.922Z,9.21
2022-11-16T23:05:47.697Z,9.21
2022-11-16T23:08:15.924Z,9.27
2022-11-16T23:11:00.377Z,9.29
2022-11-16T23:13:46.671Z,9.18
2022-11-16T23:16:21.532Z,9.21
2022-11-16T23:18:57.448Z,9.42
2022-11-16T23:21:44.554Z,9.31
2022-11-16T23:24:32.543Z,9.37
2022-11-16T23:27:23.960Z,9.24
2022-11-16T23:29:58.119Z,9.36
2022-11-16T23:32:30.432Z,9.48
2022-11-16T23:35:08.014Z,9.27
2022-11-16T23:38:00.642Z,9.50
2022-11-16T23:40:30.770Z,9.41
2022-11-16T23:43:17.274Z,9.72
2022-11-16T23:45:46.658Z,9.23
2022-11-16T23:48:22.573Z,9.47
2022-11-16T23:50:53.142Z,9.64
2022-11-16T23:53:23.989Z,9.56
2022-11-16T23:55:55.091Z,9.48
2022-11-16T23:58:23.735Z,9.16
